sensor_id;sensor_type;location;lat;lon;timestamp;temperature;humidity
38500;DHT22;24269;51.894;4.622;2022-10-16T00:01:21;14.20;99.90
38500;DHT22;24269;51.894;4.622;2022-10-16T00:03:48;14.20;99.90
38500;DHT22;24269;51.894;4.622;2022-10-16T00:06:15;14.20;99.90
38500;DHT22;24269;51.894;4.622;2022-10-16T00:08:41;14.20;99.90
38500;DHT22;24269;51.894;4.622;2022-10-16T00:11:21;14.20;99.90
38500;DHT22;24269;51.894;4.622;2022-10-16T00:13:48;14.20;99.90
38500;DHT22;24269;51.894;4.622;2022-10-16T00:16:15;14.20;99.90
38500;DHT22;24269;51.894;4.622;2022-10-16T00:18:42;14.20;99.90
38500;DHT22;24269;51.894;4.622;2022-10-16T00:21:14;14.20;99.90
38500;DHT22;24269;51.894;4.622;2022-10-16T00:23:40;14.20;99.90
38500;DHT22;24269;51.894;4.622;2022-10-16T00:26:09;14.20;99.90
38500;DHT22;24269;51.894;4.622;2022-10-16T00:28:36;14.30;99.90
38500;DHT22;24269;51.894;4.622;2022-10-16T00:31:06;14.30;99.90
38500;DHT22;24269;51.894;4.622;2022-10-16T00:33:33;14.30;99.90
38500;DHT22;24269;51.894;4.622;2022-10-16T00:35:59;14.20;99.90
38500;DHT22;24269;51.894;4.622;2022-10-16T00:38:25;14.30;99.90
38500;DHT22;24269;51.894;4.622;2022-10-16T00:40:51;14.20;99.90
38500;DHT22;24269;51.894;4.622;2022-10-16T00:46:19;14.20;99.90
38500;DHT22;24269;51.894;4.622;2022-10-16T00:48:59;14.20;99.90
38500;DHT22;24269;51.894;4.622;2022-10-16T00:51:34;14.20;99.90
38500;DHT22;24269;51.894;4.622;2022-10-16T00:54:02;14.20;99.90
38500;DHT22;24269;51.894;4.622;2022-10-16T00:56:29;14.20;99.90
38500;DHT22;24269;51.894;4.622;2022-10-16T00:58:54;14.20;99.90
38500;DHT22;24269;51.894;4.622;2022-10-16T01:01:20;14.20;99.90
38500;DHT22;24269;51.894;4.622;2022-10-16T01:03:46;14.10;99.90
38500;DHT22;24269;51.894;4.622;2022-10-16T01:06:25;14.10;99.90
38500;DHT22;24269;51.894;4.622;2022-10-16T01:09:06;13.90;99.90
38500;DHT22;24269;51.894;4.622;2022-10-16T01:17:09;13.80;99.90
38500;DHT22;24269;51.894;4.622;2022-10-16T01:19:50;13.80;99.90
38500;DHT22;24269;51.894;4.622;2022-10-16T01:22:17;13.70;99.90
38500;DHT22;24269;51.894;4.622;2022-10-16T01:24:48;13.70;99.90
38500;DHT22;24269;51.894;4.622;2022-10-16T01:27:21;13.70;99.90
38500;DHT22;24269;51.894;4.622;2022-10-16T01:38:18;13.60;99.90
38500;DHT22;24269;51.894;4.622;2022-10-16T01:40:47;13.60;99.90
38500;DHT22;24269;51.894;4.622;2022-10-16T01:43:17;13.60;99.90
38500;DHT22;24269;51.894;4.622;2022-10-16T01:45:45;13.60;99.90
38500;DHT22;24269;51.894;4.622;2022-10-16T01:48:13;13.60;99.90
38500;DHT22;24269;51.894;4.622;2022-10-16T01:50:42;13.60;99.90
38500;DHT22;24269;51.894;4.622;2022-10-16T01:53:11;13.60;99.90
38500;DHT22;24269;51.894;4.622;2022-10-16T01:55:41;13.50;99.90
38500;DHT22;24269;51.894;4.622;2022-10-16T01:58:12;13.60;99.90
38500;DHT22;24269;51.894;4.622;2022-10-16T02:00:41;13.50;99.90
38500;DHT22;24269;51.894;4.622;2022-10-16T02:03:07;13.50;99.90
38500;DHT22;24269;51.894;4.622;2022-10-16T02:05:56;13.50;99.90
38500;DHT22;24269;51.894;4.622;2022-10-16T02:08:24;13.50;99.90
38500;DHT22;24269;51.894;4.622;2022-10-16T02:10:55;13.60;99.90
38500;DHT22;24269;51.894;4.622;2022-10-16T02:13:33;13.60;99.90
38500;DHT22;24269;51.894;4.622;2022-10-16T02:16:00;13.50;99.90
38500;DHT22;24269;51.894;4.622;2022-10-16T02:18:26;13.60;99.90
38500;DHT22;24269;51.894;4.622;2022-10-16T02:21:01;13.60;99.90
38500;DHT22;24269;51.894;4.622;2022-10-16T02:23:53;13.60;99.90
38500;DHT22;24269;51.894;4.622;2022-10-16T02:26:28;13.60;99.90
38500;DHT22;24269;51.894;4.622;2022-10-16T02:29:00;13.60;99.90
38500;DHT22;24269;51.894;4.622;2022-10-16T02:31:32;13.60;99.90
38500;DHT22;24269;51.894;4.622;2022-10-16T02:34:00;13.70;99.90
38500;DHT22;24269;51.894;4.622;2022-10-16T02:36:27;13.70;99.90
38500;DHT22;24269;51.894;4.622;2022-10-16T02:38:53;13.70;99.90
38500;DHT22;24269;51.894;4.622;2022-10-16T02:41:21;13.70;99.90
38500;DHT22;24269;51.894;4.622;2022-10-16T02:43:46;13.80;99.90
38500;DHT22;24269;51.894;4.622;2022-10-16T02:46:12;13.80;99.90
38500;DHT22;24269;51.894;4.622;2022-10-16T02:48:38;13.80;99.90
38500;DHT22;24269;51.894;4.622;2022-10-16T02:51:04;13.80;99.90
38500;DHT22;24269;51.894;4.622;2022-10-16T02:53:30;13.70;99.90
38500;DHT22;24269;51.894;4.622;2022-10-16T02:55:55;13.70;99.90
38500;DHT22;24269;51.894;4.622;2022-10-16T02:58:21;13.70;99.90
38500;DHT22;24269;51.894;4.622;2022-10-16T03:00:47;13.70;99.90
38500;DHT22;24269;51.894;4.622;2022-10-16T03:03:12;13.70;99.90
38500;DHT22;24269;51.894;4.622;2022-10-16T03:05:38;13.70;99.90
38500;DHT22;24269;51.894;4.622;2022-10-16T03:08:03;13.70;99.90
38500;DHT22;24269;51.894;4.622;2022-10-16T03:10:29;13.70;99.90
38500;DHT22;24269;51.894;4.622;2022-10-16T03:12:55;13.70;99.90
38500;DHT22;24269;51.894;4.622;2022-10-16T03:15:20;13.70;99.90
38500;DHT22;24269;51.894;4.622;2022-10-16T03:17:46;13.70;99.90
38500;DHT22;24269;51.894;4.622;2022-10-16T03:20:11;13.60;99.90
38500;DHT22;24269;51.894;4.622;2022-10-16T03:22:37;13.60;99.90
38500;DHT22;24269;51.894;4.622;2022-10-16T03:25:03;13.60;99.90
38500;DHT22;24269;51.894;4.622;2022-10-16T03:27:29;13.60;99.90
38500;DHT22;24269;51.894;4.622;2022-10-16T03:29:54;13.60;99.90
38500;DHT22;24269;51.894;4.622;2022-10-16T03:32:20;13.60;99.90
38500;DHT22;24269;51.894;4.622;2022-10-16T03:34:45;13.60;99.90
38500;DHT22;24269;51.894;4.622;2022-10-16T03:37:11;13.50;99.90
38500;DHT22;24269;51.894;4.622;2022-10-16T03:39:37;13.50;99.90
38500;DHT22;24269;51.894;4.622;2022-10-16T03:42:02;13.50;99.90
38500;DHT22;24269;51.894;4.622;2022-10-16T03:44:28;13.50;99.90
38500;DHT22;24269;51.894;4.622;2022-10-16T03:46:54;13.50;99.90
38500;DHT22;24269;51.894;4.622;2022-10-16T03:49:19;13.50;99.90
38500;DHT22;24269;51.894;4.622;2022-10-16T03:51:45;13.50;99.90
38500;DHT22;24269;51.894;4.622;2022-10-16T03:54:10;13.50;99.90
38500;DHT22;24269;51.894;4.622;2022-10-16T03:56:36;13.50;99.90
38500;DHT22;24269;51.894;4.622;2022-10-16T03:59:02;13.50;99.90
38500;DHT22;24269;51.894;4.622;2022-10-16T04:01:27;13.50;99.90
38500;DHT22;24269;51.894;4.622;2022-10-16T04:03:53;13.50;99.90
38500;DHT22;24269;51.894;4.622;2022-10-16T04:06:18;13.50;99.90
38500;DHT22;24269;51.894;4.622;2022-10-16T04:08:44;13.50;99.90
38500;DHT22;24269;51.894;4.622;2022-10-16T04:11:10;13.50;99.90
38500;DHT22;24269;51.894;4.622;2022-10-16T04:13:36;13.50;99.90
38500;DHT22;24269;51.894;4.622;2022-10-16T04:16:01;13.50;99.90
38500;DHT22;24269;51.894;4.622;2022-10-16T04:18:27;13.40;99.90
38500;DHT22;24269;51.894;4.622;2022-10-16T04:20:53;13.40;99.90
38500;DHT22;24269;51.894;4.622;2022-10-16T04:23:19;13.30;99.90
38500;DHT22;24269;51.894;4.622;2022-10-16T04:25:45;13.30;99.90
38500;DHT22;24269;51.894;4.622;2022-10-16T04:28:10;13.30;99.90
38500;DHT22;24269;51.894;4.622;2022-10-16T04:30:38;13.20;99.90
38500;DHT22;24269;51.894;4.622;2022-10-16T04:33:04;13.20;99.90
38500;DHT22;24269;51.894;4.622;2022-10-16T04:35:29;13.20;99.90
38500;DHT22;24269;51.894;4.622;2022-10-16T04:38:00;13.20;99.90
38500;DHT22;24269;51.894;4.622;2022-10-16T04:40:25;13.20;99.90
38500;DHT22;24269;51.894;4.622;2022-10-16T04:42:51;13.20;99.90
38500;DHT22;24269;51.894;4.622;2022-10-16T04:45:17;13.10;99.90
38500;DHT22;24269;51.894;4.622;2022-10-16T04:47:43;13.20;99.90
38500;DHT22;24269;51.894;4.622;2022-10-16T04:50:09;13.10;99.90
38500;DHT22;24269;51.894;4.622;2022-10-16T04:52:34;13.20;99.90
38500;DHT22;24269;51.894;4.622;2022-10-16T04:55:00;13.20;99.90
38500;DHT22;24269;51.894;4.622;2022-10-16T04:57:28;13.20;99.90
38500;DHT22;24269;51.894;4.622;2022-10-16T04:59:54;13.20;99.90
38500;DHT22;24269;51.894;4.622;2022-10-16T05:02:20;13.30;99.90
38500;DHT22;24269;51.894;4.622;2022-10-16T05:04:45;13.30;99.90
38500;DHT22;24269;51.894;4.622;2022-10-16T05:07:11;13.30;99.90
38500;DHT22;24269;51.894;4.622;2022-10-16T05:09:36;13.30;99.90
38500;DHT22;24269;51.894;4.622;2022-10-16T05:12:02;13.30;99.90
38500;DHT22;24269;51.894;4.622;2022-10-16T05:14:29;13.30;99.90
38500;DHT22;24269;51.894;4.622;2022-10-16T05:16:54;13.30;99.90
38500;DHT22;24269;51.894;4.622;2022-10-16T05:19:20;13.40;99.90
38500;DHT22;24269;51.894;4.622;2022-10-16T05:21:46;13.30;99.90
38500;DHT22;24269;51.894;4.622;2022-10-16T05:24:11;13.40;99.90
38500;DHT22;24269;51.894;4.622;2022-10-16T05:26:37;13.40;99.90
38500;DHT22;24269;51.894;4.622;2022-10-16T05:29:03;13.40;99.90
38500;DHT22;24269;51.894;4.622;2022-10-16T05:31:29;13.40;99.90
38500;DHT22;24269;51.894;4.622;2022-10-16T05:33:59;13.40;99.90
38500;DHT22;24269;51.894;4.622;2022-10-16T05:36:25;13.50;99.90
38500;DHT22;24269;51.894;4.622;2022-10-16T05:38:51;13.50;99.90
38500;DHT22;24269;51.894;4.622;2022-10-16T05:41:17;13.50;99.90
38500;DHT22;24269;51.894;4.622;2022-10-16T05:43:47;13.50;99.90
38500;DHT22;24269;51.894;4.622;2022-10-16T05:46:14;13.50;99.90
38500;DHT22;24269;51.894;4.622;2022-10-16T05:48:39;13.50;99.90
38500;DHT22;24269;51.894;4.622;2022-10-16T05:51:07;13.50;99.90
38500;DHT22;24269;51.894;4.622;2022-10-16T05:53:34;13.50;99.90
38500;DHT22;24269;51.894;4.622;2022-10-16T05:56:00;13.50;99.90
38500;DHT22;24269;51.894;4.622;2022-10-16T05:58:29;13.50;99.90
38500;DHT22;24269;51.894;4.622;2022-10-16T06:00:57;13.60;99.90
38500;DHT22;24269;51.894;4.622;2022-10-16T06:03:23;13.50;99.90
38500;DHT22;24269;51.894;4.622;2022-10-16T06:05:49;13.50;99.90
38500;DHT22;24269;51.894;4.622;2022-10-16T06:08:15;13.60;99.90
38500;DHT22;24269;51.894;4.622;2022-10-16T06:10:41;13.60;99.90
38500;DHT22;24269;51.894;4.622;2022-10-16T06:13:07;13.60;99.90
38500;DHT22;24269;51.894;4.622;2022-10-16T06:15:32;13.60;99.90
38500;DHT22;24269;51.894;4.622;2022-10-16T06:17:58;13.60;99.90
38500;DHT22;24269;51.894;4.622;2022-10-16T06:20:23;13.60;99.90
38500;DHT22;24269;51.894;4.622;2022-10-16T06:22:49;13.60;99.90
38500;DHT22;24269;51.894;4.622;2022-10-16T06:25:15;13.60;99.90
38500;DHT22;24269;51.894;4.622;2022-10-16T06:27:40;13.60;99.90
38500;DHT22;24269;51.894;4.622;2022-10-16T06:30:07;13.50;99.90
38500;DHT22;24269;51.894;4.622;2022-10-16T06:32:32;13.50;99.90
38500;DHT22;24269;51.894;4.622;2022-10-16T06:34:58;13.40;99.90
38500;DHT22;24269;51.894;4.622;2022-10-16T06:37:23;13.50;99.90
38500;DHT22;24269;51.894;4.622;2022-10-16T06:39:50;13.50;99.90
38500;DHT22;24269;51.894;4.622;2022-10-16T06:42:17;13.50;99.90
38500;DHT22;24269;51.894;4.622;2022-10-16T06:44:43;13.50;99.90
38500;DHT22;24269;51.894;4.622;2022-10-16T06:47:09;13.40;99.90
38500;DHT22;24269;51.894;4.622;2022-10-16T06:49:34;13.40;99.90
38500;DHT22;24269;51.894;4.622;2022-10-16T06:52:00;13.40;99.90
38500;DHT22;24269;51.894;4.622;2022-10-16T06:54:27;13.40;99.90
38500;DHT22;24269;51.894;4.622;2022-10-16T06:56:52;13.40;99.90
38500;DHT22;24269;51.894;4.622;2022-10-16T06:59:20;13.40;99.90
38500;DHT22;24269;51.894;4.622;2022-10-16T07:01:45;13.40;99.90
38500;DHT22;24269;51.894;4.622;2022-10-16T07:04:11;13.40;99.90
38500;DHT22;24269;51.894;4.622;2022-10-16T07:06:37;13.40;99.90
38500;DHT22;24269;51.894;4.622;2022-10-16T07:09:05;13.30;99.90
38500;DHT22;24269;51.894;4.622;2022-10-16T07:11:32;13.30;99.90
38500;DHT22;24269;51.894;4.622;2022-10-16T07:13:58;13.30;99.90
38500;DHT22;24269;51.894;4.622;2022-10-16T07:16:27;13.30;99.90
38500;DHT22;24269;51.894;4.622;2022-10-16T07:18:57;13.30;99.90
38500;DHT22;24269;51.894;4.622;2022-10-16T07:21:27;13.30;99.90
38500;DHT22;24269;51.894;4.622;2022-10-16T07:23:58;13.30;99.90
38500;DHT22;24269;51.894;4.622;2022-10-16T07:26:25;13.30;99.90
38500;DHT22;24269;51.894;4.622;2022-10-16T07:28:51;13.30;99.90
38500;DHT22;24269;51.894;4.622;2022-10-16T07:31:19;13.30;99.90
38500;DHT22;24269;51.894;4.622;2022-10-16T07:33:46;13.30;99.90
38500;DHT22;24269;51.894;4.622;2022-10-16T07:36:13;13.30;99.90
38500;DHT22;24269;51.894;4.622;2022-10-16T07:38:39;13.40;99.90
38500;DHT22;24269;51.894;4.622;2022-10-16T07:41:08;13.50;99.90
38500;DHT22;24269;51.894;4.622;2022-10-16T07:43:34;13.50;99.90
38500;DHT22;24269;51.894;4.622;2022-10-16T07:46:00;13.50;99.90
38500;DHT22;24269;51.894;4.622;2022-10-16T07:48:32;13.60;99.90
38500;DHT22;24269;51.894;4.622;2022-10-16T07:51:04;13.70;99.90
38500;DHT22;24269;51.894;4.622;2022-10-16T07:53:30;13.80;99.90
38500;DHT22;24269;51.894;4.622;2022-10-16T07:56:00;13.90;99.90
38500;DHT22;24269;51.894;4.622;2022-10-16T07:58:27;13.90;99.90
38500;DHT22;24269;51.894;4.622;2022-10-16T08:00:54;14.00;99.90
38500;DHT22;24269;51.894;4.622;2022-10-16T08:03:19;14.10;99.90
38500;DHT22;24269;51.894;4.622;2022-10-16T08:05:45;14.20;99.90
38500;DHT22;24269;51.894;4.622;2022-10-16T08:08:14;14.30;99.90
38500;DHT22;24269;51.894;4.622;2022-10-16T08:10:40;14.40;99.90
38500;DHT22;24269;51.894;4.622;2022-10-16T08:13:06;14.50;99.90
38500;DHT22;24269;51.894;4.622;2022-10-16T08:15:31;14.60;99.90
38500;DHT22;24269;51.894;4.622;2022-10-16T08:17:59;14.70;99.90
38500;DHT22;24269;51.894;4.622;2022-10-16T08:20:26;14.80;99.90
38500;DHT22;24269;51.894;4.622;2022-10-16T08:22:52;14.90;99.90
38500;DHT22;24269;51.894;4.622;2022-10-16T08:25:20;15.00;99.90
38500;DHT22;24269;51.894;4.622;2022-10-16T08:27:46;15.10;99.90
38500;DHT22;24269;51.894;4.622;2022-10-16T08:30:11;15.20;99.90
38500;DHT22;24269;51.894;4.622;2022-10-16T08:32:37;15.30;99.90
38500;DHT22;24269;51.894;4.622;2022-10-16T08:35:03;15.40;99.90
38500;DHT22;24269;51.894;4.622;2022-10-16T08:37:32;15.60;99.90
38500;DHT22;24269;51.894;4.622;2022-10-16T08:39:58;15.70;99.90
38500;DHT22;24269;51.894;4.622;2022-10-16T08:50:50;16.20;99.90
38500;DHT22;24269;51.894;4.622;2022-10-16T08:53:39;16.40;99.90
38500;DHT22;24269;51.894;4.622;2022-10-16T08:56:06;16.50;99.90
38500;DHT22;24269;51.894;4.622;2022-10-16T08:58:31;16.50;99.90
38500;DHT22;24269;51.894;4.622;2022-10-16T09:01:00;16.70;99.90
38500;DHT22;24269;51.894;4.622;2022-10-16T09:06:34;17.10;99.90
38500;DHT22;24269;51.894;4.622;2022-10-16T09:12:19;17.50;99.90
38500;DHT22;24269;51.894;4.622;2022-10-16T09:18:05;17.10;99.90
38500;DHT22;24269;51.894;4.622;2022-10-16T09:23:35;16.80;99.90
38500;DHT22;24269;51.894;4.622;2022-10-16T09:26:01;16.80;99.90
38500;DHT22;24269;51.894;4.622;2022-10-16T09:28:27;16.80;99.90
38500;DHT22;24269;51.894;4.622;2022-10-16T09:30:53;16.80;99.90
38500;DHT22;24269;51.894;4.622;2022-10-16T09:33:23;16.70;99.90
38500;DHT22;24269;51.894;4.622;2022-10-16T09:35:51;16.80;99.90
38500;DHT22;24269;51.894;4.622;2022-10-16T09:38:32;16.70;99.90
38500;DHT22;24269;51.894;4.622;2022-10-16T09:41:12;16.60;99.90
38500;DHT22;24269;51.894;4.622;2022-10-16T09:43:39;16.60;99.90
38500;DHT22;24269;51.894;4.622;2022-10-16T09:46:08;16.70;99.90
38500;DHT22;24269;51.894;4.622;2022-10-16T09:48:47;16.80;99.90
38500;DHT22;24269;51.894;4.622;2022-10-16T09:51:34;16.90;99.90
38500;DHT22;24269;51.894;4.622;2022-10-16T09:56:36;16.90;99.90
38500;DHT22;24269;51.894;4.622;2022-10-16T09:59:18;17.10;99.90
38500;DHT22;24269;51.894;4.622;2022-10-16T10:03:37;17.10;99.90
38500;DHT22;24269;51.894;4.622;2022-10-16T10:06:24;17.10;99.90
38500;DHT22;24269;51.894;4.622;2022-10-16T10:08:58;17.20;99.90
38500;DHT22;24269;51.894;4.622;2022-10-16T10:11:52;17.40;99.90
38500;DHT22;24269;51.894;4.622;2022-10-16T10:14:39;17.60;99.90
38500;DHT22;24269;51.894;4.622;2022-10-16T10:19:40;17.90;99.90
38500;DHT22;24269;51.894;4.622;2022-10-16T10:39:13;17.90;99.90
38500;DHT22;24269;51.894;4.622;2022-10-16T10:44:54;17.90;99.90
38500;DHT22;24269;51.894;4.622;2022-10-16T11:01:08;17.70;99.90
38500;DHT22;24269;51.894;4.622;2022-10-16T11:06:55;18.30;99.90
38500;DHT22;24269;51.894;4.622;2022-10-16T11:09:27;18.50;99.90
38500;DHT22;24269;51.894;4.622;2022-10-16T11:12:45;18.50;99.90
38500;DHT22;24269;51.894;4.622;2022-10-16T11:15:11;18.70;99.90
38500;DHT22;24269;51.894;4.622;2022-10-16T11:17:42;18.70;99.90
38500;DHT22;24269;51.894;4.622;2022-10-16T11:20:20;18.80;99.90
38500;DHT22;24269;51.894;4.622;2022-10-16T11:22:55;19.10;99.90
38500;DHT22;24269;51.894;4.622;2022-10-16T11:25:27;19.30;99.90
38500;DHT22;24269;51.894;4.622;2022-10-16T11:30:55;19.50;99.90
38500;DHT22;24269;51.894;4.622;2022-10-16T11:33:41;19.60;99.90
38500;DHT22;24269;51.894;4.622;2022-10-16T11:36:25;19.70;99.90
38500;DHT22;24269;51.894;4.622;2022-10-16T11:39:17;19.70;99.90
38500;DHT22;24269;51.894;4.622;2022-10-16T11:42:04;19.90;99.90
38500;DHT22;24269;51.894;4.622;2022-10-16T11:44:44;19.90;99.90
38500;DHT22;24269;51.894;4.622;2022-10-16T11:49:45;19.90;99.90
38500;DHT22;24269;51.894;4.622;2022-10-16T11:54:57;20.10;99.90
38500;DHT22;24269;51.894;4.622;2022-10-16T11:57:29;20.20;99.90
38500;DHT22;24269;51.894;4.622;2022-10-16T12:02:54;20.20;99.90
38500;DHT22;24269;51.894;4.622;2022-10-16T12:05:25;20.10;99.90
38500;DHT22;24269;51.894;4.622;2022-10-16T12:08:14;20.20;99.90
38500;DHT22;24269;51.894;4.622;2022-10-16T12:10:43;20.30;99.90
38500;DHT22;24269;51.894;4.622;2022-10-16T12:13:32;20.30;99.90
38500;DHT22;24269;51.894;4.622;2022-10-16T12:16:24;20.30;99.90
38500;DHT22;24269;51.894;4.622;2022-10-16T12:18:50;20.30;99.90
38500;DHT22;24269;51.894;4.622;2022-10-16T12:21:31;20.40;99.90
38500;DHT22;24269;51.894;4.622;2022-10-16T12:23:58;20.30;99.90
38500;DHT22;24269;51.894;4.622;2022-10-16T12:26:31;20.20;99.90
38500;DHT22;24269;51.894;4.622;2022-10-16T12:29:13;20.10;99.90
38500;DHT22;24269;51.894;4.622;2022-10-16T12:31:44;20.20;99.90
38500;DHT22;24269;51.894;4.622;2022-10-16T12:34:32;20.20;99.90
38500;DHT22;24269;51.894;4.622;2022-10-16T12:37:23;20.30;99.90
38500;DHT22;24269;51.894;4.622;2022-10-16T12:39:50;20.30;99.90
38500;DHT22;24269;51.894;4.622;2022-10-16T12:44:45;20.40;99.90
38500;DHT22;24269;51.894;4.622;2022-10-16T12:47:35;20.40;99.90
38500;DHT22;24269;51.894;4.622;2022-10-16T12:50:01;20.30;99.90
38500;DHT22;24269;51.894;4.622;2022-10-16T12:54:58;20.00;99.90
38500;DHT22;24269;51.894;4.622;2022-10-16T12:57:30;20.10;99.90
38500;DHT22;24269;51.894;4.622;2022-10-16T13:00:25;20.00;99.90
38500;DHT22;24269;51.894;4.622;2022-10-16T13:06:20;19.90;99.90
38500;DHT22;24269;51.894;4.622;2022-10-16T13:14:52;20.20;99.90
38500;DHT22;24269;51.894;4.622;2022-10-16T13:23:06;19.90;99.90
38500;DHT22;24269;51.894;4.622;2022-10-16T13:26:39;19.80;99.90
38500;DHT22;24269;51.894;4.622;2022-10-16T13:28:38;19.70;99.90
38500;DHT22;24269;51.894;4.622;2022-10-16T13:31:05;19.70;99.90
38500;DHT22;24269;51.894;4.622;2022-10-16T13:33:41;19.80;99.90
38500;DHT22;24269;51.894;4.622;2022-10-16T13:36:20;19.90;99.90
38500;DHT22;24269;51.894;4.622;2022-10-16T13:38:46;20.00;99.90
38500;DHT22;24269;51.894;4.622;2022-10-16T13:41:18;20.10;99.90
38500;DHT22;24269;51.894;4.622;2022-10-16T13:43:52;20.10;99.90
38500;DHT22;24269;51.894;4.622;2022-10-16T13:46:22;20.10;99.90
38500;DHT22;24269;51.894;4.622;2022-10-16T13:49:00;20.00;99.90
38500;DHT22;24269;51.894;4.622;2022-10-16T13:51:27;19.90;99.90
38500;DHT22;24269;51.894;4.622;2022-10-16T13:53:55;19.90;99.90
38500;DHT22;24269;51.894;4.622;2022-10-16T13:56:22;19.90;99.90
38500;DHT22;24269;51.894;4.622;2022-10-16T13:59:22;19.80;99.90
38500;DHT22;24269;51.894;4.622;2022-10-16T14:01:49;19.70;99.90
38500;DHT22;24269;51.894;4.622;2022-10-16T14:04:16;19.60;99.90
38500;DHT22;24269;51.894;4.622;2022-10-16T14:06:44;19.60;99.90
38500;DHT22;24269;51.894;4.622;2022-10-16T14:12:01;19.90;99.90
38500;DHT22;24269;51.894;4.622;2022-10-16T14:14:48;19.90;99.90
38500;DHT22;24269;51.894;4.622;2022-10-16T14:17:30;19.90;99.90
38500;DHT22;24269;51.894;4.622;2022-10-16T14:19:59;19.70;99.90
38500;DHT22;24269;51.894;4.622;2022-10-16T14:22:35;19.30;99.90
38500;DHT22;24269;51.894;4.622;2022-10-16T14:30:35;19.00;99.90
38500;DHT22;24269;51.894;4.622;2022-10-16T14:33:04;18.90;99.90
38500;DHT22;24269;51.894;4.622;2022-10-16T14:35:33;18.70;99.90
38500;DHT22;24269;51.894;4.622;2022-10-16T14:38:01;18.60;99.90
38500;DHT22;24269;51.894;4.622;2022-10-16T14:40:37;18.60;99.90
38500;DHT22;24269;51.894;4.622;2022-10-16T14:43:04;18.60;99.90
38500;DHT22;24269;51.894;4.622;2022-10-16T14:45:33;18.50;99.90
38500;DHT22;24269;51.894;4.622;2022-10-16T14:48:03;18.50;99.90
38500;DHT22;24269;51.894;4.622;2022-10-16T14:50:30;18.30;99.90
38500;DHT22;24269;51.894;4.622;2022-10-16T14:52:56;18.20;99.90
38500;DHT22;24269;51.894;4.622;2022-10-16T14:55:22;18.30;99.90
38500;DHT22;24269;51.894;4.622;2022-10-16T14:57:48;18.30;99.90
38500;DHT22;24269;51.894;4.622;2022-10-16T15:00:23;18.10;99.90
38500;DHT22;24269;51.894;4.622;2022-10-16T15:02:50;18.20;99.90
38500;DHT22;24269;51.894;4.622;2022-10-16T15:05:24;18.10;99.90
38500;DHT22;24269;51.894;4.622;2022-10-16T15:07:52;18.00;99.90
38500;DHT22;24269;51.894;4.622;2022-10-16T15:10:20;17.90;99.90
38500;DHT22;24269;51.894;4.622;2022-10-16T15:12:46;17.90;99.90
38500;DHT22;24269;51.894;4.622;2022-10-16T15:15:37;17.90;99.90
38500;DHT22;24269;51.894;4.622;2022-10-16T15:18:04;17.90;99.90
38500;DHT22;24269;51.894;4.622;2022-10-16T15:20:33;17.90;99.90
38500;DHT22;24269;51.894;4.622;2022-10-16T15:23:04;17.90;99.90
38500;DHT22;24269;51.894;4.622;2022-10-16T15:28:02;17.80;99.90
38500;DHT22;24269;51.894;4.622;2022-10-16T15:30:28;17.70;99.90
38500;DHT22;24269;51.894;4.622;2022-10-16T15:32:54;17.60;99.90
38500;DHT22;24269;51.894;4.622;2022-10-16T15:35:19;17.50;99.90
38500;DHT22;24269;51.894;4.622;2022-10-16T15:37:46;17.40;99.90
38500;DHT22;24269;51.894;4.622;2022-10-16T15:40:13;17.30;99.90
38500;DHT22;24269;51.894;4.622;2022-10-16T15:42:38;17.30;99.90
38500;DHT22;24269;51.894;4.622;2022-10-16T15:45:05;17.20;99.90
38500;DHT22;24269;51.894;4.622;2022-10-16T15:47:31;17.10;99.90
38500;DHT22;24269;51.894;4.622;2022-10-16T15:49:57;17.00;99.90
38500;DHT22;24269;51.894;4.622;2022-10-16T15:52:23;16.90;99.90
38500;DHT22;24269;51.894;4.622;2022-10-16T15:54:48;16.90;99.90
38500;DHT22;24269;51.894;4.622;2022-10-16T15:57:14;16.80;99.90
38500;DHT22;24269;51.894;4.622;2022-10-16T15:59:39;16.80;99.90
38500;DHT22;24269;51.894;4.622;2022-10-16T16:02:05;16.70;99.90
38500;DHT22;24269;51.894;4.622;2022-10-16T16:04:31;16.70;99.90
38500;DHT22;24269;51.894;4.622;2022-10-16T16:06:57;16.60;99.90
38500;DHT22;24269;51.894;4.622;2022-10-16T16:09:22;16.60;99.90
38500;DHT22;24269;51.894;4.622;2022-10-16T16:11:49;16.60;99.90
38500;DHT22;24269;51.894;4.622;2022-10-16T16:14:15;16.50;99.90
38500;DHT22;24269;51.894;4.622;2022-10-16T16:16:41;16.50;99.90
38500;DHT22;24269;51.894;4.622;2022-10-16T16:19:07;16.40;99.90
38500;DHT22;24269;51.894;4.622;2022-10-16T16:21:34;16.40;99.90
38500;DHT22;24269;51.894;4.622;2022-10-16T16:23:59;16.40;99.90
38500;DHT22;24269;51.894;4.622;2022-10-16T16:26:28;16.40;99.90
38500;DHT22;24269;51.894;4.622;2022-10-16T16:28:57;16.30;99.90
38500;DHT22;24269;51.894;4.622;2022-10-16T16:31:25;16.30;99.90
38500;DHT22;24269;51.894;4.622;2022-10-16T16:33:51;16.20;99.90
38500;DHT22;24269;51.894;4.622;2022-10-16T16:36:17;16.10;99.90
38500;DHT22;24269;51.894;4.622;2022-10-16T16:38:46;16.10;99.90
38500;DHT22;24269;51.894;4.622;2022-10-16T16:43:42;16.00;99.90
38500;DHT22;24269;51.894;4.622;2022-10-16T16:46:08;16.00;99.90
38500;DHT22;24269;51.894;4.622;2022-10-16T16:48:34;15.90;99.90
38500;DHT22;24269;51.894;4.622;2022-10-16T16:51:07;15.90;99.90
38500;DHT22;24269;51.894;4.622;2022-10-16T16:53:34;15.90;99.90
38500;DHT22;24269;51.894;4.622;2022-10-16T16:56:04;15.90;99.90
38500;DHT22;24269;51.894;4.622;2022-10-16T16:58:31;15.80;99.90
38500;DHT22;24269;51.894;4.622;2022-10-16T17:00:57;15.80;99.90
38500;DHT22;24269;51.894;4.622;2022-10-16T17:03:33;15.80;99.90
38500;DHT22;24269;51.894;4.622;2022-10-16T17:06:01;15.80;99.90
38500;DHT22;24269;51.894;4.622;2022-10-16T17:08:28;15.80;99.90
38500;DHT22;24269;51.894;4.622;2022-10-16T17:10:54;15.70;99.90
38500;DHT22;24269;51.894;4.622;2022-10-16T17:13:24;15.70;99.90
38500;DHT22;24269;51.894;4.622;2022-10-16T17:15:51;15.70;99.90
38500;DHT22;24269;51.894;4.622;2022-10-16T17:18:17;15.60;99.90
38500;DHT22;24269;51.894;4.622;2022-10-16T17:20:43;15.60;99.90
38500;DHT22;24269;51.894;4.622;2022-10-16T17:23:10;15.60;99.90
38500;DHT22;24269;51.894;4.622;2022-10-16T17:25:39;15.60;99.90
38500;DHT22;24269;51.894;4.622;2022-10-16T17:28:06;15.60;99.90
38500;DHT22;24269;51.894;4.622;2022-10-16T17:30:33;15.50;99.90
38500;DHT22;24269;51.894;4.622;2022-10-16T17:33:03;15.50;99.90
38500;DHT22;24269;51.894;4.622;2022-10-16T17:35:29;15.50;99.90
38500;DHT22;24269;51.894;4.622;2022-10-16T17:37:55;15.50;99.90
38500;DHT22;24269;51.894;4.622;2022-10-16T17:40:21;15.50;99.90
38500;DHT22;24269;51.894;4.622;2022-10-16T17:42:46;15.50;99.90
38500;DHT22;24269;51.894;4.622;2022-10-16T17:45:13;15.50;99.90
38500;DHT22;24269;51.894;4.622;2022-10-16T17:47:38;15.50;99.90
38500;DHT22;24269;51.894;4.622;2022-10-16T17:50:06;15.50;99.90